East Homer, New York
Current Conditions -  °F | °C
As of 2:55 AM on Friday 24 Oct 2014 (Local Time) from KN03 Reporting Station
Overcast Overcast  
Wind Chill: 41°   Ceiling: 1400
Heat Index: 45°   Visibility: 10mi
Dew Point: 45°   Wind: 7mph
Humidity: 100%   Direction: 320°NW
Pressure: 29.94"   Gusts: NA
Location:  42.67°N, 76.1°W
Report Text: KN03 240655Z AUTO 32006KT 10SM BKN014 BKN019 OVC032 07/07 A2994 RMK AO2
Loading
Personal Weather Stations






























Interactive Weather Map
Tropical Storm Tracking
New forecast layout! Learn more

10-Day Weather Forecast

Advertisements
Track Severe Weather on mobile